sensor_id;sensor_type;location;lat;lon;timestamp;temperature;humidity
10233;DHT22;5161;48.174;11.756;2023-04-03T00:02:16;6.00;75.00
10233;DHT22;5161;48.174;11.756;2023-04-03T00:04:42;6.00;75.00
10233;DHT22;5161;48.174;11.756;2023-04-03T00:07:08;6.00;74.90
10233;DHT22;5161;48.174;11.756;2023-04-03T00:09:33;6.00;75.00
10233;DHT22;5161;48.174;11.756;2023-04-03T00:11:59;6.00;75.00
10233;DHT22;5161;48.174;11.756;2023-04-03T00:14:25;6.00;75.00
10233;DHT22;5161;48.174;11.756;2023-04-03T00:16:51;6.00;75.00
10233;DHT22;5161;48.174;11.756;2023-04-03T00:19:16;5.90;75.10
10233;DHT22;5161;48.174;11.756;2023-04-03T00:21:42;5.90;75.10
10233;DHT22;5161;48.174;11.756;2023-04-03T00:24:07;5.90;75.00
10233;DHT22;5161;48.174;11.756;2023-04-03T00:26:33;5.90;75.20
10233;DHT22;5161;48.174;11.756;2023-04-03T00:28:58;6.00;75.00
10233;DHT22;5161;48.174;11.756;2023-04-03T00:31:24;6.00;74.80
10233;DHT22;5161;48.174;11.756;2023-04-03T00:33:50;5.90;74.60
10233;DHT22;5161;48.174;11.756;2023-04-03T00:36:15;5.90;74.80
10233;DHT22;5161;48.174;11.756;2023-04-03T00:38:41;5.80;75.00
10233;DHT22;5161;48.174;11.756;2023-04-03T00:41:07;5.80;75.00
10233;DHT22;5161;48.174;11.756;2023-04-03T00:43:32;5.80;74.90
10233;DHT22;5161;48.174;11.756;2023-04-03T00:45:58;5.80;74.80
10233;DHT22;5161;48.174;11.756;2023-04-03T00:48:40;5.80;74.50
10233;DHT22;5161;48.174;11.756;2023-04-03T00:51:19;5.90;72.60
10233;DHT22;5161;48.174;11.756;2023-04-03T00:53:53;5.90;74.10
10233;DHT22;5161;48.174;11.756;2023-04-03T00:56:21;5.90;74.00
10233;DHT22;5161;48.174;11.756;2023-04-03T00:58:58;5.90;74.10
10233;DHT22;5161;48.174;11.756;2023-04-03T01:01:26;5.90;72.30
10233;DHT22;5161;48.174;11.756;2023-04-03T01:03:52;5.90;74.70
10233;DHT22;5161;48.174;11.756;2023-04-03T01:06:23;5.80;74.50
10233;DHT22;5161;48.174;11.756;2023-04-03T01:08:50;5.90;73.90
10233;DHT22;5161;48.174;11.756;2023-04-03T01:11:16;5.80;74.50
10233;DHT22;5161;48.174;11.756;2023-04-03T01:13:42;5.90;74.90
10233;DHT22;5161;48.174;11.756;2023-04-03T01:16:07;5.90;75.10
10233;DHT22;5161;48.174;11.756;2023-04-03T01:18:36;5.90;75.10
10233;DHT22;5161;48.174;11.756;2023-04-03T01:24:09;5.90;72.30
10233;DHT22;5161;48.174;11.756;2023-04-03T01:26:37;5.90;72.20
10233;DHT22;5161;48.174;11.756;2023-04-03T01:29:03;6.00;74.70
10233;DHT22;5161;48.174;11.756;2023-04-03T01:34:01;6.00;73.00
10233;DHT22;5161;48.174;11.756;2023-04-03T01:36:29;5.90;74.70
10233;DHT22;5161;48.174;11.756;2023-04-03T01:38:56;5.90;74.00
10233;DHT22;5161;48.174;11.756;2023-04-03T01:41:22;5.90;74.20
10233;DHT22;5161;48.174;11.756;2023-04-03T01:43:48;5.90;74.50
10233;DHT22;5161;48.174;11.756;2023-04-03T01:46:15;5.90;74.20
10233;DHT22;5161;48.174;11.756;2023-04-03T01:48:41;5.90;74.30
10233;DHT22;5161;48.174;11.756;2023-04-03T01:51:07;5.90;74.40
10233;DHT22;5161;48.174;11.756;2023-04-03T01:53:32;5.90;74.80
10233;DHT22;5161;48.174;11.756;2023-04-03T01:55:58;5.90;74.90
10233;DHT22;5161;48.174;11.756;2023-04-03T01:58:23;5.90;74.90
10233;DHT22;5161;48.174;11.756;2023-04-03T02:00:50;5.90;74.50
10233;DHT22;5161;48.174;11.756;2023-04-03T02:03:16;5.80;74.80
10233;DHT22;5161;48.174;11.756;2023-04-03T02:05:41;5.90;74.70
10233;DHT22;5161;48.174;11.756;2023-04-03T02:08:07;5.90;74.70
10233;DHT22;5161;48.174;11.756;2023-04-03T02:10:32;5.80;74.70
10233;DHT22;5161;48.174;11.756;2023-04-03T02:12:58;5.80;74.40
10233;DHT22;5161;48.174;11.756;2023-04-03T02:15:24;5.80;74.50
10233;DHT22;5161;48.174;11.756;2023-04-03T02:17:50;5.80;74.40
10233;DHT22;5161;48.174;11.756;2023-04-03T02:20:15;5.90;74.60
10233;DHT22;5161;48.174;11.756;2023-04-03T02:22:41;5.90;74.60
10233;DHT22;5161;48.174;11.756;2023-04-03T02:25:07;5.90;74.70
10233;DHT22;5161;48.174;11.756;2023-04-03T02:27:33;5.80;74.20
10233;DHT22;5161;48.174;11.756;2023-04-03T02:29:58;5.80;74.60
10233;DHT22;5161;48.174;11.756;2023-04-03T02:32:24;5.80;74.60
10233;DHT22;5161;48.174;11.756;2023-04-03T02:34:49;5.80;74.70
10233;DHT22;5161;48.174;11.756;2023-04-03T02:37:15;5.80;74.70
10233;DHT22;5161;48.174;11.756;2023-04-03T02:39:41;5.80;74.30
10233;DHT22;5161;48.174;11.756;2023-04-03T02:42:06;5.80;74.50
10233;DHT22;5161;48.174;11.756;2023-04-03T02:44:32;5.80;74.60
10233;DHT22;5161;48.174;11.756;2023-04-03T02:46:58;5.80;74.60
10233;DHT22;5161;48.174;11.756;2023-04-03T02:49:23;5.80;74.60
10233;DHT22;5161;48.174;11.756;2023-04-03T02:51:49;5.80;74.50
10233;DHT22;5161;48.174;11.756;2023-04-03T02:54:16;5.80;74.60
10233;DHT22;5161;48.174;11.756;2023-04-03T02:56:41;5.80;74.40
10233;DHT22;5161;48.174;11.756;2023-04-03T02:59:07;5.90;74.60
10233;DHT22;5161;48.174;11.756;2023-04-03T03:01:33;5.80;74.30
10233;DHT22;5161;48.174;11.756;2023-04-03T03:03:59;5.80;74.30
10233;DHT22;5161;48.174;11.756;2023-04-03T03:06:25;5.80;74.30
10233;DHT22;5161;48.174;11.756;2023-04-03T03:08:51;5.80;74.90
10233;DHT22;5161;48.174;11.756;2023-04-03T03:11:17;5.80;74.40
10233;DHT22;5161;48.174;11.756;2023-04-03T03:13:42;5.80;74.20
10233;DHT22;5161;48.174;11.756;2023-04-03T03:16:08;5.70;74.40
10233;DHT22;5161;48.174;11.756;2023-04-03T03:18:34;5.70;74.20
10233;DHT22;5161;48.174;11.756;2023-04-03T03:21:02;5.70;74.10
10233;DHT22;5161;48.174;11.756;2023-04-03T03:23:29;5.70;73.90
10233;DHT22;5161;48.174;11.756;2023-04-03T03:25:56;5.70;73.90
10233;DHT22;5161;48.174;11.756;2023-04-03T03:28:22;5.70;73.80
10233;DHT22;5161;48.174;11.756;2023-04-03T03:30:48;5.80;74.30
10233;DHT22;5161;48.174;11.756;2023-04-03T03:33:13;5.70;74.30
10233;DHT22;5161;48.174;11.756;2023-04-03T03:35:39;5.70;74.20
10233;DHT22;5161;48.174;11.756;2023-04-03T03:38:05;5.70;74.20
10233;DHT22;5161;48.174;11.756;2023-04-03T03:40:31;5.70;74.30
10233;DHT22;5161;48.174;11.756;2023-04-03T03:42:56;5.70;74.40
10233;DHT22;5161;48.174;11.756;2023-04-03T03:45:22;5.70;74.30
10233;DHT22;5161;48.174;11.756;2023-04-03T03:47:47;5.70;74.20
10233;DHT22;5161;48.174;11.756;2023-04-03T03:50:13;5.60;74.00
10233;DHT22;5161;48.174;11.756;2023-04-03T03:52:38;5.60;74.20
10233;DHT22;5161;48.174;11.756;2023-04-03T03:55:04;5.70;74.50
10233;DHT22;5161;48.174;11.756;2023-04-03T03:57:30;5.70;74.10
10233;DHT22;5161;48.174;11.756;2023-04-03T03:59:55;5.70;74.30
10233;DHT22;5161;48.174;11.756;2023-04-03T04:02:21;5.70;74.20
10233;DHT22;5161;48.174;11.756;2023-04-03T04:04:47;5.70;74.20
10233;DHT22;5161;48.174;11.756;2023-04-03T04:07:12;5.70;74.60
10233;DHT22;5161;48.174;11.756;2023-04-03T04:09:38;5.60;74.10
10233;DHT22;5161;48.174;11.756;2023-04-03T04:12:04;5.60;74.10
10233;DHT22;5161;48.174;11.756;2023-04-03T04:14:29;5.60;74.00
10233;DHT22;5161;48.174;11.756;2023-04-03T04:16:55;5.60;74.10
10233;DHT22;5161;48.174;11.756;2023-04-03T04:19:20;5.70;74.30
10233;DHT22;5161;48.174;11.756;2023-04-03T04:21:46;5.60;74.10
10233;DHT22;5161;48.174;11.756;2023-04-03T04:24:17;5.60;74.10
10233;DHT22;5161;48.174;11.756;2023-04-03T04:26:58;5.60;71.90
10233;DHT22;5161;48.174;11.756;2023-04-03T04:29:29;5.60;72.10
10233;DHT22;5161;48.174;11.756;2023-04-03T04:32:03;5.60;71.10
10233;DHT22;5161;48.174;11.756;2023-04-03T04:37:59;5.60;71.20
10233;DHT22;5161;48.174;11.756;2023-04-03T04:40:26;5.60;73.60
10233;DHT22;5161;48.174;11.756;2023-04-03T04:42:51;5.60;73.70
10233;DHT22;5161;48.174;11.756;2023-04-03T04:45:17;5.60;73.80
10233;DHT22;5161;48.174;11.756;2023-04-03T04:47:43;5.60;73.60
10233;DHT22;5161;48.174;11.756;2023-04-03T04:50:09;5.60;73.70
10233;DHT22;5161;48.174;11.756;2023-04-03T04:52:35;5.60;73.30
10233;DHT22;5161;48.174;11.756;2023-04-03T04:55:01;5.60;73.80
10233;DHT22;5161;48.174;11.756;2023-04-03T04:57:26;5.60;74.00
10233;DHT22;5161;48.174;11.756;2023-04-03T04:59:52;5.60;73.80
10233;DHT22;5161;48.174;11.756;2023-04-03T05:02:17;5.60;73.90
10233;DHT22;5161;48.174;11.756;2023-04-03T05:04:43;5.60;74.00
10233;DHT22;5161;48.174;11.756;2023-04-03T05:07:09;5.60;74.00
10233;DHT22;5161;48.174;11.756;2023-04-03T05:09:37;5.60;72.70
10233;DHT22;5161;48.174;11.756;2023-04-03T05:12:03;5.60;73.80
10233;DHT22;5161;48.174;11.756;2023-04-03T05:14:28;5.60;73.60
10233;DHT22;5161;48.174;11.756;2023-04-03T05:16:54;5.60;74.50
10233;DHT22;5161;48.174;11.756;2023-04-03T05:19:23;5.60;73.90
10233;DHT22;5161;48.174;11.756;2023-04-03T05:21:48;5.60;72.70
10233;DHT22;5161;48.174;11.756;2023-04-03T05:24:15;5.60;73.80
10233;DHT22;5161;48.174;11.756;2023-04-03T05:26:42;5.60;73.90
10233;DHT22;5161;48.174;11.756;2023-04-03T05:29:07;5.50;73.40
10233;DHT22;5161;48.174;11.756;2023-04-03T05:31:33;5.50;73.70
10233;DHT22;5161;48.174;11.756;2023-04-03T05:33:58;5.50;73.90
10233;DHT22;5161;48.174;11.756;2023-04-03T05:36:24;5.60;74.00
10233;DHT22;5161;48.174;11.756;2023-04-03T05:38:51;5.60;73.90
10233;DHT22;5161;48.174;11.756;2023-04-03T05:41:16;5.60;74.10
10233;DHT22;5161;48.174;11.756;2023-04-03T05:43:42;5.60;74.00
10233;DHT22;5161;48.174;11.756;2023-04-03T05:46:18;5.60;74.10
10233;DHT22;5161;48.174;11.756;2023-04-03T05:48:44;5.60;72.00
10233;DHT22;5161;48.174;11.756;2023-04-03T05:51:16;5.60;73.90
10233;DHT22;5161;48.174;11.756;2023-04-03T05:53:43;5.60;72.40
10233;DHT22;5161;48.174;11.756;2023-04-03T05:56:08;5.60;73.50
10233;DHT22;5161;48.174;11.756;2023-04-03T05:58:34;5.60;74.00
10233;DHT22;5161;48.174;11.756;2023-04-03T06:01:00;5.60;74.00
10233;DHT22;5161;48.174;11.756;2023-04-03T06:03:26;5.60;73.80
10233;DHT22;5161;48.174;11.756;2023-04-03T06:05:52;5.60;74.10
10233;DHT22;5161;48.174;11.756;2023-04-03T06:08:18;5.60;73.80
10233;DHT22;5161;48.174;11.756;2023-04-03T06:10:44;5.60;73.90
10233;DHT22;5161;48.174;11.756;2023-04-03T06:13:10;5.60;73.90
10233;DHT22;5161;48.174;11.756;2023-04-03T06:15:36;5.60;73.30
10233;DHT22;5161;48.174;11.756;2023-04-03T06:18:03;5.60;73.20
10233;DHT22;5161;48.174;11.756;2023-04-03T06:20:29;5.60;73.30
10233;DHT22;5161;48.174;11.756;2023-04-03T06:22:54;5.60;73.40
10233;DHT22;5161;48.174;11.756;2023-04-03T06:25:20;5.60;73.40
10233;DHT22;5161;48.174;11.756;2023-04-03T06:27:46;5.70;73.40
10233;DHT22;5161;48.174;11.756;2023-04-03T06:30:12;5.70;73.20
10233;DHT22;5161;48.174;11.756;2023-04-03T06:32:38;5.70;73.30
10233;DHT22;5161;48.174;11.756;2023-04-03T06:35:04;5.70;73.40
10233;DHT22;5161;48.174;11.756;2023-04-03T06:37:30;5.70;73.30
10233;DHT22;5161;48.174;11.756;2023-04-03T06:39:56;5.70;73.30
10233;DHT22;5161;48.174;11.756;2023-04-03T06:42:22;5.70;73.20
10233;DHT22;5161;48.174;11.756;2023-04-03T06:44:48;5.80;73.90
10233;DHT22;5161;48.174;11.756;2023-04-03T06:47:15;5.80;73.00
10233;DHT22;5161;48.174;11.756;2023-04-03T06:49:40;5.80;73.30
10233;DHT22;5161;48.174;11.756;2023-04-03T06:52:06;5.80;73.10
10233;DHT22;5161;48.174;11.756;2023-04-03T06:54:32;5.80;73.00
10233;DHT22;5161;48.174;11.756;2023-04-03T06:56:58;5.80;72.80
10233;DHT22;5161;48.174;11.756;2023-04-03T06:59:24;5.80;72.30
10233;DHT22;5161;48.174;11.756;2023-04-03T07:01:49;5.80;72.70
10233;DHT22;5161;48.174;11.756;2023-04-03T07:04:15;5.90;72.60
10233;DHT22;5161;48.174;11.756;2023-04-03T07:06:41;5.90;72.60
10233;DHT22;5161;48.174;11.756;2023-04-03T07:09:08;5.90;72.60
10233;DHT22;5161;48.174;11.756;2023-04-03T07:11:34;5.90;72.60
10233;DHT22;5161;48.174;11.756;2023-04-03T07:14:01;5.90;72.60
10233;DHT22;5161;48.174;11.756;2023-04-03T07:16:27;5.90;72.70
10233;DHT22;5161;48.174;11.756;2023-04-03T07:18:53;5.90;72.60
10233;DHT22;5161;48.174;11.756;2023-04-03T07:21:18;6.00;72.70
10233;DHT22;5161;48.174;11.756;2023-04-03T07:23:44;6.00;72.60
10233;DHT22;5161;48.174;11.756;2023-04-03T07:26:10;6.00;72.50
10233;DHT22;5161;48.174;11.756;2023-04-03T07:28:35;6.00;72.20
10233;DHT22;5161;48.174;11.756;2023-04-03T07:31:07;6.00;72.10
10233;DHT22;5161;48.174;11.756;2023-04-03T07:33:34;6.00;72.60
10233;DHT22;5161;48.174;11.756;2023-04-03T07:36:00;6.00;72.30
10233;DHT22;5161;48.174;11.756;2023-04-03T07:38:26;6.00;72.10
10233;DHT22;5161;48.174;11.756;2023-04-03T07:40:52;6.00;72.10
10233;DHT22;5161;48.174;11.756;2023-04-03T07:43:19;6.00;71.70
10233;DHT22;5161;48.174;11.756;2023-04-03T07:45:46;6.00;72.10
10233;DHT22;5161;48.174;11.756;2023-04-03T07:48:15;6.00;72.10
10233;DHT22;5161;48.174;11.756;2023-04-03T07:50:43;6.00;72.00
10233;DHT22;5161;48.174;11.756;2023-04-03T07:53:09;6.00;72.10
10233;DHT22;5161;48.174;11.756;2023-04-03T07:55:36;6.10;72.10
10233;DHT22;5161;48.174;11.756;2023-04-03T07:58:12;6.10;71.90
10233;DHT22;5161;48.174;11.756;2023-04-03T08:00:39;6.10;71.60
10233;DHT22;5161;48.174;11.756;2023-04-03T08:03:05;6.20;71.90
10233;DHT22;5161;48.174;11.756;2023-04-03T08:05:30;6.20;72.00
10233;DHT22;5161;48.174;11.756;2023-04-03T08:07:56;6.20;71.50
10233;DHT22;5161;48.174;11.756;2023-04-03T08:10:23;6.10;71.30
10233;DHT22;5161;48.174;11.756;2023-04-03T08:12:48;6.20;71.40
10233;DHT22;5161;48.174;11.756;2023-04-03T08:15:17;6.20;70.80
10233;DHT22;5161;48.174;11.756;2023-04-03T08:17:42;6.20;71.50
10233;DHT22;5161;48.174;11.756;2023-04-03T08:20:10;6.20;70.60
10233;DHT22;5161;48.174;11.756;2023-04-03T08:22:38;6.30;71.20
10233;DHT22;5161;48.174;11.756;2023-04-03T08:25:04;6.30;70.80
10233;DHT22;5161;48.174;11.756;2023-04-03T08:27:30;6.30;70.80
10233;DHT22;5161;48.174;11.756;2023-04-03T08:29:56;6.30;70.90
10233;DHT22;5161;48.174;11.756;2023-04-03T08:32:22;6.30;70.80
10233;DHT22;5161;48.174;11.756;2023-04-03T08:34:48;6.40;70.60
10233;DHT22;5161;48.174;11.756;2023-04-03T08:37:14;6.40;70.10
10233;DHT22;5161;48.174;11.756;2023-04-03T08:39:41;6.40;70.10
10233;DHT22;5161;48.174;11.756;2023-04-03T08:44:59;6.40;70.60
10233;DHT22;5161;48.174;11.756;2023-04-03T08:47:38;6.50;71.50
10233;DHT22;5161;48.174;11.756;2023-04-03T08:50:19;6.50;71.30
10233;DHT22;5161;48.174;11.756;2023-04-03T08:52:52;6.50;71.60
10233;DHT22;5161;48.174;11.756;2023-04-03T08:55:23;6.60;71.60
10233;DHT22;5161;48.174;11.756;2023-04-03T08:58:00;6.60;70.80
10233;DHT22;5161;48.174;11.756;2023-04-03T09:00:41;6.60;70.60
10233;DHT22;5161;48.174;11.756;2023-04-03T09:03:13;6.70;70.40
10233;DHT22;5161;48.174;11.756;2023-04-03T09:16:56;6.80;70.30
10233;DHT22;5161;48.174;11.756;2023-04-03T09:22:21;6.90;70.00
10233;DHT22;5161;48.174;11.756;2023-04-03T09:25:02;7.00;70.90
10233;DHT22;5161;48.174;11.756;2023-04-03T09:27:38;7.00;70.00
10233;DHT22;5161;48.174;11.756;2023-04-03T09:30:04;7.10;69.70
10233;DHT22;5161;48.174;11.756;2023-04-03T09:32:35;7.10;69.20
10233;DHT22;5161;48.174;11.756;2023-04-03T09:35:18;7.10;69.40
10233;DHT22;5161;48.174;11.756;2023-04-03T09:37:50;7.10;69.50
10233;DHT22;5161;48.174;11.756;2023-04-03T09:42:53;7.10;69.30
10233;DHT22;5161;48.174;11.756;2023-04-03T09:45:33;7.20;69.20
10233;DHT22;5161;48.174;11.756;2023-04-03T09:53:49;7.00;68.70
10233;DHT22;5161;48.174;11.756;2023-04-03T09:58:51;7.00;68.60
10233;DHT22;5161;48.174;11.756;2023-04-03T10:01:33;7.00;68.90
10233;DHT22;5161;48.174;11.756;2023-04-03T10:04:18;7.00;69.10
10233;DHT22;5161;48.174;11.756;2023-04-03T10:06:49;7.10;68.30
10233;DHT22;5161;48.174;11.756;2023-04-03T10:09:41;7.10;68.20
10233;DHT22;5161;48.174;11.756;2023-04-03T10:12:19;7.10;68.80
10233;DHT22;5161;48.174;11.756;2023-04-03T10:14:57;7.10;68.50
10233;DHT22;5161;48.174;11.756;2023-04-03T10:20:36;6.90;68.30
10233;DHT22;5161;48.174;11.756;2023-04-03T10:23:18;6.80;68.30
10233;DHT22;5161;48.174;11.756;2023-04-03T10:42:53;6.70;69.00
10233;DHT22;5161;48.174;11.756;2023-04-03T10:45:30;6.70;70.10
10233;DHT22;5161;48.174;11.756;2023-04-03T10:48:16;6.70;69.70
10233;DHT22;5161;48.174;11.756;2023-04-03T10:59:31;6.70;68.80
10233;DHT22;5161;48.174;11.756;2023-04-03T11:02:48;6.70;69.20
10233;DHT22;5161;48.174;11.756;2023-04-03T11:04:51;6.80;68.60
10233;DHT22;5161;48.174;11.756;2023-04-03T11:07:24;6.80;68.00
10233;DHT22;5161;48.174;11.756;2023-04-03T11:10:03;6.80;68.00
10233;DHT22;5161;48.174;11.756;2023-04-03T11:12:48;6.80;67.70
10233;DHT22;5161;48.174;11.756;2023-04-03T11:15:18;6.80;67.40
10233;DHT22;5161;48.174;11.756;2023-04-03T11:17:54;6.80;65.90
10233;DHT22;5161;48.174;11.756;2023-04-03T11:20:30;6.80;66.80
10233;DHT22;5161;48.174;11.756;2023-04-03T11:23:26;6.80;66.90
10233;DHT22;5161;48.174;11.756;2023-04-03T11:26:05;6.80;66.70
10233;DHT22;5161;48.174;11.756;2023-04-03T11:28:32;6.90;66.20
10233;DHT22;5161;48.174;11.756;2023-04-03T11:36:46;7.00;64.80
10233;DHT22;5161;48.174;11.756;2023-04-03T11:39:24;7.00;64.80
10233;DHT22;5161;48.174;11.756;2023-04-03T11:41:51;7.00;63.80
10233;DHT22;5161;48.174;11.756;2023-04-03T11:44:50;7.00;64.00
10233;DHT22;5161;48.174;11.756;2023-04-03T11:47:45;7.00;63.90
10233;DHT22;5161;48.174;11.756;2023-04-03T11:50:30;7.00;64.10
10233;DHT22;5161;48.174;11.756;2023-04-03T11:52:59;7.00;63.90
10233;DHT22;5161;48.174;11.756;2023-04-03T12:14:01;7.80;62.30
10233;DHT22;5161;48.174;11.756;2023-04-03T12:41:31;8.60;60.80
10233;DHT22;5161;48.174;11.756;2023-04-03T12:44:16;8.90;57.50
10233;DHT22;5161;48.174;11.756;2023-04-03T12:46:51;9.50;60.60
10233;DHT22;5161;48.174;11.756;2023-04-03T12:51:55;9.90;57.00
10233;DHT22;5161;48.174;11.756;2023-04-03T12:54:36;9.90;57.80
10233;DHT22;5161;48.174;11.756;2023-04-03T12:57:19;10.30;58.00
10233;DHT22;5161;48.174;11.756;2023-04-03T12:59:46;10.60;57.80
10233;DHT22;5161;48.174;11.756;2023-04-03T13:02:27;10.70;56.50
10233;DHT22;5161;48.174;11.756;2023-04-03T13:05:07;10.60;55.00
10233;DHT22;5161;48.174;11.756;2023-04-03T13:07:35;10.50;55.20
10233;DHT22;5161;48.174;11.756;2023-04-03T13:12:56;10.30;55.80
10233;DHT22;5161;48.174;11.756;2023-04-03T13:15:28;11.00;55.70
10233;DHT22;5161;48.174;11.756;2023-04-03T13:17:55;11.50;56.40
10233;DHT22;5161;48.174;11.756;2023-04-03T13:22:49;11.50;54.20
10233;DHT22;5161;48.174;11.756;2023-04-03T13:25:20;11.30;54.40
10233;DHT22;5161;48.174;11.756;2023-04-03T13:27:48;11.10;54.50
10233;DHT22;5161;48.174;11.756;2023-04-03T13:30:28;10.80;53.80
10233;DHT22;5161;48.174;11.756;2023-04-03T13:32:56;10.50;53.40
10233;DHT22;5161;48.174;11.756;2023-04-03T13:37:57;10.10;53.90
10233;DHT22;5161;48.174;11.756;2023-04-03T13:40:24;10.00;53.50
10233;DHT22;5161;48.174;11.756;2023-04-03T13:43:16;9.80;54.00
10233;DHT22;5161;48.174;11.756;2023-04-03T13:48:48;9.50;54.20
10233;DHT22;5161;48.174;11.756;2023-04-03T13:53:55;9.30;53.80
10233;DHT22;5161;48.174;11.756;2023-04-03T13:59:00;9.20;54.20
10233;DHT22;5161;48.174;11.756;2023-04-03T14:01:43;9.10;53.60
10233;DHT22;5161;48.174;11.756;2023-04-03T14:04:25;9.10;54.10
10233;DHT22;5161;48.174;11.756;2023-04-03T14:06:52;9.10;54.00
10233;DHT22;5161;48.174;11.756;2023-04-03T14:09:19;9.10;53.70
10233;DHT22;5161;48.174;11.756;2023-04-03T14:11:46;9.10;53.50
10233;DHT22;5161;48.174;11.756;2023-04-03T14:14:19;9.10;53.80
10233;DHT22;5161;48.174;11.756;2023-04-03T14:16:49;9.10;53.20
10233;DHT22;5161;48.174;11.756;2023-04-03T14:19:22;9.40;53.40
10233;DHT22;5161;48.174;11.756;2023-04-03T14:21:49;9.70;53.40
10233;DHT22;5161;48.174;11.756;2023-04-03T14:24:16;9.90;53.20
10233;DHT22;5161;48.174;11.756;2023-04-03T14:26:46;9.90;51.40
10233;DHT22;5161;48.174;11.756;2023-04-03T14:29:12;10.00;51.60
10233;DHT22;5161;48.174;11.756;2023-04-03T14:31:39;10.00;51.60
10233;DHT22;5161;48.174;11.756;2023-04-03T14:34:13;10.10;51.80
10233;DHT22;5161;48.174;11.756;2023-04-03T14:36:40;10.40;52.00
10233;DHT22;5161;48.174;11.756;2023-04-03T14:39:11;10.60;51.40
10233;DHT22;5161;48.174;11.756;2023-04-03T14:41:42;10.70;51.10
10233;DHT22;5161;48.174;11.756;2023-04-03T14:44:08;10.90;50.70
10233;DHT22;5161;48.174;11.756;2023-04-03T14:46:39;11.10;50.40
10233;DHT22;5161;48.174;11.756;2023-04-03T14:49:22;11.20;50.40
10233;DHT22;5161;48.174;11.756;2023-04-03T14:51:49;11.30;50.50
10233;DHT22;5161;48.174;11.756;2023-04-03T14:54:17;11.30;47.40
10233;DHT22;5161;48.174;11.756;2023-04-03T14:56:44;11.30;48.50
10233;DHT22;5161;48.174;11.756;2023-04-03T14:59:12;11.30;48.70
10233;DHT22;5161;48.174;11.756;2023-04-03T15:01:43;11.30;49.00
10233;DHT22;5161;48.174;11.756;2023-04-03T15:04:17;11.40;49.70
10233;DHT22;5161;48.174;11.756;2023-04-03T15:06:44;11.50;49.40
10233;DHT22;5161;48.174;11.756;2023-04-03T15:09:22;11.60;47.70
10233;DHT22;5161;48.174;11.756;2023-04-03T15:11:52;11.60;49.70
10233;DHT22;5161;48.174;11.756;2023-04-03T15:14:18;11.60;48.50
10233;DHT22;5161;48.174;11.756;2023-04-03T15:16:44;11.60;47.90
10233;DHT22;5161;48.174;11.756;2023-04-03T15:19:11;11.50;47.80
10233;DHT22;5161;48.174;11.756;2023-04-03T15:21:37;11.50;47.50
10233;DHT22;5161;48.174;11.756;2023-04-03T15:24:03;11.50;48.70
10233;DHT22;5161;48.174;11.756;2023-04-03T15:26:29;11.60;48.30
10233;DHT22;5161;48.174;11.756;2023-04-03T15:28:55;11.50;46.80
10233;DHT22;5161;48.174;11.756;2023-04-03T15:31:21;11.60;47.80
10233;DHT22;5161;48.174;11.756;2023-04-03T15:33:49;11.50;47.40
10233;DHT22;5161;48.174;11.756;2023-04-03T15:36:15;11.50;47.70
10233;DHT22;5161;48.174;11.756;2023-04-03T15:38:43;11.50;47.30
10233;DHT22;5161;48.174;11.756;2023-04-03T15:41:10;11.50;47.00
10233;DHT22;5161;48.174;11.756;2023-04-03T15:43:36;11.50;46.90
10233;DHT22;5161;48.174;11.756;2023-04-03T15:46:02;11.50;46.50
10233;DHT22;5161;48.174;11.756;2023-04-03T15:48:31;11.40;46.10
10233;DHT22;5161;48.174;11.756;2023-04-03T15:50:57;11.40;46.30
10233;DHT22;5161;48.174;11.756;2023-04-03T15:53:25;11.30;45.80
10233;DHT22;5161;48.174;11.756;2023-04-03T15:55:51;11.30;47.00
10233;DHT22;5161;48.174;11.756;2023-04-03T15:58:17;11.30;46.20
10233;DHT22;5161;48.174;11.756;2023-04-03T16:00:43;11.30;45.40
10233;DHT22;5161;48.174;11.756;2023-04-03T16:03:14;11.20;45.70
10233;DHT22;5161;48.174;11.756;2023-04-03T16:05:47;11.30;46.00
10233;DHT22;5161;48.174;11.756;2023-04-03T16:08:13;11.20;45.80
10233;DHT22;5161;48.174;11.756;2023-04-03T16:10:40;11.20;45.70
10233;DHT22;5161;48.174;11.756;2023-04-03T16:13:06;11.20;45.20
10233;DHT22;5161;48.174;11.756;2023-04-03T16:15:32;11.10;45.10
10233;DHT22;5161;48.174;11.756;2023-04-03T16:18:00;11.00;45.20
10233;DHT22;5161;48.174;11.756;2023-04-03T16:20:26;10.90;45.40
10233;DHT22;5161;48.174;11.756;2023-04-03T16:22:52;10.80;45.00
10233;DHT22;5161;48.174;11.756;2023-04-03T16:25:21;10.80;44.30
10233;DHT22;5161;48.174;11.756;2023-04-03T16:27:46;10.60;44.70
10233;DHT22;5161;48.174;11.756;2023-04-03T16:30:12;10.50;45.10
10233;DHT22;5161;48.174;11.756;2023-04-03T16:32:39;10.60;44.70
10233;DHT22;5161;48.174;11.756;2023-04-03T16:35:05;10.60;45.60
10233;DHT22;5161;48.174;11.756;2023-04-03T16:37:31;10.60;45.00
10233;DHT22;5161;48.174;11.756;2023-04-03T16:39:57;10.60;45.70
10233;DHT22;5161;48.174;11.756;2023-04-03T16:42:24;10.60;45.00
10233;DHT22;5161;48.174;11.756;2023-04-03T16:44:50;10.60;44.30
10233;DHT22;5161;48.174;11.756;2023-04-03T16:47:16;10.40;44.10
10233;DHT22;5161;48.174;11.756;2023-04-03T16:49:45;10.30;44.50
10233;DHT22;5161;48.174;11.756;2023-04-03T16:52:13;10.20;45.50
10233;DHT22;5161;48.174;11.756;2023-04-03T16:54:39;10.20;45.00
10233;DHT22;5161;48.174;11.756;2023-04-03T16:57:05;10.00;44.40
10233;DHT22;5161;48.174;11.756;2023-04-03T16:59:30;9.90;45.80
10233;DHT22;5161;48.174;11.756;2023-04-03T17:01:56;9.80;45.90
10233;DHT22;5161;48.174;11.756;2023-04-03T17:04:21;9.70;46.20
10233;DHT22;5161;48.174;11.756;2023-04-03T17:06:47;9.50;45.70
10233;DHT22;5161;48.174;11.756;2023-04-03T17:09:13;9.40;46.10
10233;DHT22;5161;48.174;11.756;2023-04-03T17:11:39;9.30;46.10
10233;DHT22;5161;48.174;11.756;2023-04-03T17:14:04;9.30;46.20
10233;DHT22;5161;48.174;11.756;2023-04-03T17:16:32;9.10;46.20
10233;DHT22;5161;48.174;11.756;2023-04-03T17:18:59;9.00;46.10
10233;DHT22;5161;48.174;11.756;2023-04-03T17:21:26;8.90;45.90
10233;DHT22;5161;48.174;11.756;2023-04-03T17:23:58;8.80;46.00
10233;DHT22;5161;48.174;11.756;2023-04-03T17:26:25;8.70;46.30
10233;DHT22;5161;48.174;11.756;2023-04-03T17:28:51;8.70;46.30
10233;DHT22;5161;48.174;11.756;2023-04-03T17:31:17;8.60;46.10
10233;DHT22;5161;48.174;11.756;2023-04-03T17:33:45;8.60;46.10
10233;DHT22;5161;48.174;11.756;2023-04-03T17:36:11;8.50;46.10
10233;DHT22;5161;48.174;11.756;2023-04-03T17:38:37;8.50;46.10
10233;DHT22;5161;48.174;11.756;2023-04-03T17:41:06;8.50;46.10
10233;DHT22;5161;48.174;11.756;2023-04-03T17:43:32;8.40;46.30
10233;DHT22;5161;48.174;11.756;2023-04-03T17:46:04;8.40;46.40
10233;DHT22;5161;48.174;11.756;2023-04-03T17:48:34;8.40;46.30
10233;DHT22;5161;48.174;11.756;2023-04-03T17:51:20;8.30;46.20
10233;DHT22;5161;48.174;11.756;2023-04-03T17:53:46;8.30;46.20
10233;DHT22;5161;48.174;11.756;2023-04-03T17:56:15;8.20;46.10
10233;DHT22;5161;48.174;11.756;2023-04-03T17:58:42;8.10;46.50
10233;DHT22;5161;48.174;11.756;2023-04-03T18:01:14;8.10;46.50
10233;DHT22;5161;48.174;11.756;2023-04-03T18:03:40;8.10;46.70
10233;DHT22;5161;48.174;11.756;2023-04-03T18:06:08;8.00;46.50